sensor_id;sensor_type;location;lat;lon;timestamp;P1;durP1;ratioP1;P2;durP2;ratioP2
49962;SDS011;36180;57.678;11.910;2022-09-12T00:00:12;5.95;;;3.80;;
49962;SDS011;36180;57.678;11.910;2022-09-12T00:02:40;6.70;;;4.00;;
49962;SDS011;36180;57.678;11.910;2022-09-12T00:05:09;4.90;;;3.88;;
49962;SDS011;36180;57.678;11.910;2022-09-12T00:07:36;7.20;;;4.30;;
49962;SDS011;36180;57.678;11.910;2022-09-12T00:10:03;6.78;;;4.07;;
49962;SDS011;36180;57.678;11.910;2022-09-12T00:12:31;6.60;;;4.60;;
49962;SDS011;36180;57.678;11.910;2022-09-12T00:14:59;7.38;;;4.68;;
49962;SDS011;36180;57.678;11.910;2022-09-12T00:17:26;5.80;;;4.50;;
49962;SDS011;36180;57.678;11.910;2022-09-12T00:19:53;6.55;;;4.40;;
49962;SDS011;36180;57.678;11.910;2022-09-12T00:22:21;9.13;;;5.15;;
49962;SDS011;36180;57.678;11.910;2022-09-12T00:24:48;6.28;;;4.47;;
49962;SDS011;36180;57.678;11.910;2022-09-12T00:27:15;6.00;;;4.85;;
49962;SDS011;36180;57.678;11.910;2022-09-12T00:29:42;9.35;;;5.15;;
49962;SDS011;36180;57.678;11.910;2022-09-12T00:32:09;6.63;;;4.75;;
49962;SDS011;36180;57.678;11.910;2022-09-12T00:34:36;7.55;;;4.95;;
49962;SDS011;36180;57.678;11.910;2022-09-12T00:37:03;9.13;;;4.65;;
49962;SDS011;36180;57.678;11.910;2022-09-12T00:39:32;5.68;;;4.47;;
49962;SDS011;36180;57.678;11.910;2022-09-12T00:41:58;7.53;;;4.80;;
49962;SDS011;36180;57.678;11.910;2022-09-12T00:44:42;6.72;;;4.78;;
49962;SDS011;36180;57.678;11.910;2022-09-12T00:47:13;5.90;;;4.55;;
49962;SDS011;36180;57.678;11.910;2022-09-12T00:49:46;8.38;;;5.07;;
49962;SDS011;36180;57.678;11.910;2022-09-12T00:52:15;9.02;;;4.85;;
49962;SDS011;36180;57.678;11.910;2022-09-12T00:54:48;8.82;;;5.40;;
49962;SDS011;36180;57.678;11.910;2022-09-12T00:57:18;7.38;;;4.60;;
49962;SDS011;36180;57.678;11.910;2022-09-12T00:59:47;6.30;;;4.90;;
49962;SDS011;36180;57.678;11.910;2022-09-12T01:02:16;7.18;;;4.65;;
49962;SDS011;36180;57.678;11.910;2022-09-12T01:04:43;5.30;;;4.43;;
49962;SDS011;36180;57.678;11.910;2022-09-12T01:07:11;8.10;;;4.65;;
49962;SDS011;36180;57.678;11.910;2022-09-12T01:09:39;7.22;;;4.45;;
49962;SDS011;36180;57.678;11.910;2022-09-12T01:12:09;6.82;;;4.63;;
49962;SDS011;36180;57.678;11.910;2022-09-12T01:14:37;6.57;;;4.40;;
49962;SDS011;36180;57.678;11.910;2022-09-12T01:17:04;6.03;;;4.47;;
49962;SDS011;36180;57.678;11.910;2022-09-12T01:19:41;7.22;;;4.88;;
49962;SDS011;36180;57.678;11.910;2022-09-12T01:22:37;5.95;;;4.43;;
49962;SDS011;36180;57.678;11.910;2022-09-12T01:25:18;7.30;;;4.18;;
49962;SDS011;36180;57.678;11.910;2022-09-12T01:28:05;5.55;;;4.32;;
49962;SDS011;36180;57.678;11.910;2022-09-12T01:30:45;6.57;;;4.25;;
49962;SDS011;36180;57.678;11.910;2022-09-12T01:33:25;6.35;;;4.82;;
49962;SDS011;36180;57.678;11.910;2022-09-12T01:36:08;6.45;;;4.60;;
49962;SDS011;36180;57.678;11.910;2022-09-12T01:38:58;7.88;;;4.18;;
49962;SDS011;36180;57.678;11.910;2022-09-12T01:41:27;4.68;;;3.97;;
49962;SDS011;36180;57.678;11.910;2022-09-12T01:43:59;6.38;;;4.75;;
49962;SDS011;36180;57.678;11.910;2022-09-12T01:46:33;5.55;;;4.80;;
49962;SDS011;36180;57.678;11.910;2022-09-12T01:49:06;6.03;;;4.57;;
49962;SDS011;36180;57.678;11.910;2022-09-12T01:51:38;6.85;;;4.88;;
49962;SDS011;36180;57.678;11.910;2022-09-12T01:54:08;9.15;;;4.97;;
49962;SDS011;36180;57.678;11.910;2022-09-12T01:56:38;8.18;;;4.90;;
49962;SDS011;36180;57.678;11.910;2022-09-12T01:59:07;7.68;;;4.65;;
49962;SDS011;36180;57.678;11.910;2022-09-12T02:01:40;7.22;;;4.85;;
49962;SDS011;36180;57.678;11.910;2022-09-12T02:04:10;6.20;;;4.80;;
49962;SDS011;36180;57.678;11.910;2022-09-12T02:06:41;6.25;;;4.45;;
49962;SDS011;36180;57.678;11.910;2022-09-12T02:09:12;6.93;;;4.32;;
49962;SDS011;36180;57.678;11.910;2022-09-12T02:11:43;5.75;;;4.47;;
49962;SDS011;36180;57.678;11.910;2022-09-12T02:14:12;7.10;;;4.85;;
49962;SDS011;36180;57.678;11.910;2022-09-12T02:16:45;7.10;;;4.67;;
49962;SDS011;36180;57.678;11.910;2022-09-12T02:19:14;5.55;;;4.47;;
49962;SDS011;36180;57.678;11.910;2022-09-12T02:21:44;8.27;;;4.82;;
49962;SDS011;36180;57.678;11.910;2022-09-12T02:24:15;6.32;;;4.63;;
49962;SDS011;36180;57.678;11.910;2022-09-12T02:26:45;7.53;;;5.00;;
49962;SDS011;36180;57.678;11.910;2022-09-12T02:29:15;7.57;;;4.70;;
49962;SDS011;36180;57.678;11.910;2022-09-12T02:31:43;6.70;;;4.70;;
49962;SDS011;36180;57.678;11.910;2022-09-12T02:34:16;6.18;;;4.53;;
49962;SDS011;36180;57.678;11.910;2022-09-12T02:36:51;9.10;;;4.90;;
49962;SDS011;36180;57.678;11.910;2022-09-12T02:39:24;11.32;;;4.50;;
49962;SDS011;36180;57.678;11.910;2022-09-12T02:41:51;5.93;;;4.88;;
49962;SDS011;36180;57.678;11.910;2022-09-12T02:44:19;9.65;;;4.57;;
49962;SDS011;36180;57.678;11.910;2022-09-12T02:46:49;5.40;;;4.45;;
49962;SDS011;36180;57.678;11.910;2022-09-12T02:49:18;8.80;;;4.70;;
49962;SDS011;36180;57.678;11.910;2022-09-12T02:51:45;5.68;;;4.97;;
49962;SDS011;36180;57.678;11.910;2022-09-12T02:54:12;5.35;;;4.50;;
49962;SDS011;36180;57.678;11.910;2022-09-12T02:56:41;5.07;;;4.57;;
49962;SDS011;36180;57.678;11.910;2022-09-12T02:59:10;8.70;;;5.13;;
49962;SDS011;36180;57.678;11.910;2022-09-12T03:01:43;5.55;;;4.25;;
49962;SDS011;36180;57.678;11.910;2022-09-12T03:04:35;6.18;;;4.38;;
49962;SDS011;36180;57.678;11.910;2022-09-12T03:07:10;8.65;;;4.50;;
49962;SDS011;36180;57.678;11.910;2022-09-12T03:09:42;7.55;;;4.68;;
49962;SDS011;36180;57.678;11.910;2022-09-12T03:12:16;9.23;;;4.80;;
49962;SDS011;36180;57.678;11.910;2022-09-12T03:17:43;9.95;;;5.13;;
49962;SDS011;36180;57.678;11.910;2022-09-12T03:20:21;7.05;;;4.55;;
49962;SDS011;36180;57.678;11.910;2022-09-12T03:22:55;6.18;;;5.10;;
49962;SDS011;36180;57.678;11.910;2022-09-12T03:25:26;7.45;;;4.43;;
49962;SDS011;36180;57.678;11.910;2022-09-12T03:27:56;6.28;;;5.47;;
49962;SDS011;36180;57.678;11.910;2022-09-12T03:30:25;7.40;;;5.20;;
49962;SDS011;36180;57.678;11.910;2022-09-12T03:32:54;5.80;;;4.78;;
49962;SDS011;36180;57.678;11.910;2022-09-12T03:35:21;6.90;;;4.07;;
49962;SDS011;36180;57.678;11.910;2022-09-12T03:37:50;9.02;;;4.88;;
49962;SDS011;36180;57.678;11.910;2022-09-12T03:40:17;7.53;;;5.22;;
49962;SDS011;36180;57.678;11.910;2022-09-12T03:42:44;5.10;;;4.63;;
49962;SDS011;36180;57.678;11.910;2022-09-12T03:45:11;6.78;;;4.97;;
49962;SDS011;36180;57.678;11.910;2022-09-12T03:47:38;10.48;;;5.15;;
49962;SDS011;36180;57.678;11.910;2022-09-12T03:50:07;6.15;;;5.07;;
49962;SDS011;36180;57.678;11.910;2022-09-12T03:52:34;5.65;;;4.20;;
49962;SDS011;36180;57.678;11.910;2022-09-12T03:55:01;6.00;;;5.18;;
49962;SDS011;36180;57.678;11.910;2022-09-12T03:57:29;8.73;;;4.95;;
49962;SDS011;36180;57.678;11.910;2022-09-12T03:59:56;6.65;;;5.10;;
49962;SDS011;36180;57.678;11.910;2022-09-12T04:02:23;9.52;;;5.70;;
49962;SDS011;36180;57.678;11.910;2022-09-12T04:04:50;8.48;;;4.93;;
49962;SDS011;36180;57.678;11.910;2022-09-12T04:07:18;7.43;;;5.30;;
49962;SDS011;36180;57.678;11.910;2022-09-12T04:09:45;6.90;;;5.00;;
49962;SDS011;36180;57.678;11.910;2022-09-12T04:12:12;6.10;;;5.03;;
49962;SDS011;36180;57.678;11.910;2022-09-12T04:14:39;7.72;;;5.00;;
49962;SDS011;36180;57.678;11.910;2022-09-12T04:17:06;9.65;;;5.03;;
49962;SDS011;36180;57.678;11.910;2022-09-12T04:19:33;7.18;;;5.18;;
49962;SDS011;36180;57.678;11.910;2022-09-12T04:22:00;8.65;;;5.40;;
49962;SDS011;36180;57.678;11.910;2022-09-12T04:24:28;6.97;;;5.18;;
49962;SDS011;36180;57.678;11.910;2022-09-12T04:26:55;9.90;;;5.90;;
49962;SDS011;36180;57.678;11.910;2022-09-12T04:29:22;10.90;;;5.72;;
49962;SDS011;36180;57.678;11.910;2022-09-12T04:31:49;8.95;;;5.88;;
49962;SDS011;36180;57.678;11.910;2022-09-12T04:34:16;7.80;;;5.72;;
49962;SDS011;36180;57.678;11.910;2022-09-12T04:36:43;8.18;;;5.68;;
49962;SDS011;36180;57.678;11.910;2022-09-12T04:39:10;6.03;;;5.43;;
49962;SDS011;36180;57.678;11.910;2022-09-12T04:41:39;8.75;;;5.55;;
49962;SDS011;36180;57.678;11.910;2022-09-12T04:44:07;7.53;;;6.53;;
49962;SDS011;36180;57.678;11.910;2022-09-12T04:46:37;7.63;;;5.47;;
49962;SDS011;36180;57.678;11.910;2022-09-12T04:49:04;7.95;;;6.28;;
49962;SDS011;36180;57.678;11.910;2022-09-12T04:51:32;10.05;;;6.05;;
49962;SDS011;36180;57.678;11.910;2022-09-12T04:54:00;7.55;;;5.65;;
49962;SDS011;36180;57.678;11.910;2022-09-12T04:56:29;7.38;;;6.50;;
49962;SDS011;36180;57.678;11.910;2022-09-12T04:58:58;7.65;;;5.85;;
49962;SDS011;36180;57.678;11.910;2022-09-12T05:01:26;7.75;;;5.90;;
49962;SDS011;36180;57.678;11.910;2022-09-12T05:03:54;7.22;;;6.32;;
49962;SDS011;36180;57.678;11.910;2022-09-12T05:06:22;8.18;;;6.32;;
49962;SDS011;36180;57.678;11.910;2022-09-12T05:08:50;8.20;;;5.65;;
49962;SDS011;36180;57.678;11.910;2022-09-12T05:11:19;8.57;;;6.47;;
49962;SDS011;36180;57.678;11.910;2022-09-12T05:13:46;8.25;;;5.90;;
49962;SDS011;36180;57.678;11.910;2022-09-12T05:16:15;6.85;;;5.95;;
49962;SDS011;36180;57.678;11.910;2022-09-12T05:18:43;6.68;;;5.97;;
49962;SDS011;36180;57.678;11.910;2022-09-12T05:21:11;8.05;;;5.50;;
49962;SDS011;36180;57.678;11.910;2022-09-12T05:23:40;8.48;;;5.22;;
49962;SDS011;36180;57.678;11.910;2022-09-12T05:26:09;8.57;;;5.43;;
49962;SDS011;36180;57.678;11.910;2022-09-12T05:28:38;8.80;;;5.35;;
49962;SDS011;36180;57.678;11.910;2022-09-12T05:31:05;6.40;;;5.80;;
49962;SDS011;36180;57.678;11.910;2022-09-12T05:33:35;6.28;;;5.65;;
49962;SDS011;36180;57.678;11.910;2022-09-12T05:36:04;7.40;;;5.32;;
49962;SDS011;36180;57.678;11.910;2022-09-12T05:38:33;9.02;;;5.80;;
49962;SDS011;36180;57.678;11.910;2022-09-12T05:41:03;9.48;;;5.68;;
49962;SDS011;36180;57.678;11.910;2022-09-12T05:43:31;9.80;;;5.75;;
49962;SDS011;36180;57.678;11.910;2022-09-12T05:46:01;10.00;;;5.35;;
49962;SDS011;36180;57.678;11.910;2022-09-12T05:48:28;9.98;;;5.28;;
49962;SDS011;36180;57.678;11.910;2022-09-12T05:51:00;7.72;;;5.82;;
49962;SDS011;36180;57.678;11.910;2022-09-12T05:53:28;9.38;;;6.20;;
49962;SDS011;36180;57.678;11.910;2022-09-12T05:56:02;7.32;;;5.60;;
49962;SDS011;36180;57.678;11.910;2022-09-12T05:58:30;7.07;;;5.78;;
49962;SDS011;36180;57.678;11.910;2022-09-12T06:01:00;7.97;;;5.78;;
49962;SDS011;36180;57.678;11.910;2022-09-12T06:03:28;10.40;;;6.20;;
49962;SDS011;36180;57.678;11.910;2022-09-12T06:05:55;9.82;;;6.03;;
49962;SDS011;36180;57.678;11.910;2022-09-12T06:08:23;7.57;;;6.05;;
49962;SDS011;36180;57.678;11.910;2022-09-12T06:10:50;7.47;;;6.20;;
49962;SDS011;36180;57.678;11.910;2022-09-12T06:13:17;9.13;;;5.88;;
49962;SDS011;36180;57.678;11.910;2022-09-12T06:15:44;7.43;;;6.45;;
49962;SDS011;36180;57.678;11.910;2022-09-12T06:18:11;7.13;;;5.30;;
49962;SDS011;36180;57.678;11.910;2022-09-12T06:20:38;10.02;;;6.53;;
49962;SDS011;36180;57.678;11.910;2022-09-12T06:23:05;6.35;;;5.75;;
49962;SDS011;36180;57.678;11.910;2022-09-12T06:25:34;7.63;;;5.82;;
49962;SDS011;36180;57.678;11.910;2022-09-12T06:28:02;9.43;;;5.93;;
49962;SDS011;36180;57.678;11.910;2022-09-12T06:30:29;6.70;;;5.53;;
49962;SDS011;36180;57.678;11.910;2022-09-12T06:32:56;8.45;;;5.50;;
49962;SDS011;36180;57.678;11.910;2022-09-12T06:35:23;6.97;;;5.63;;
49962;SDS011;36180;57.678;11.910;2022-09-12T06:37:50;6.57;;;5.75;;
49962;SDS011;36180;57.678;11.910;2022-09-12T06:40:17;7.75;;;5.55;;
49962;SDS011;36180;57.678;11.910;2022-09-12T06:42:45;8.50;;;5.38;;
49962;SDS011;36180;57.678;11.910;2022-09-12T06:45:25;11.48;;;5.22;;
49962;SDS011;36180;57.678;11.910;2022-09-12T06:47:52;6.30;;;5.05;;
49962;SDS011;36180;57.678;11.910;2022-09-12T06:50:20;7.00;;;5.22;;
49962;SDS011;36180;57.678;11.910;2022-09-12T06:52:48;9.23;;;6.13;;
49962;SDS011;36180;57.678;11.910;2022-09-12T06:55:15;8.32;;;5.57;;
49962;SDS011;36180;57.678;11.910;2022-09-12T06:57:42;7.40;;;5.53;;
49962;SDS011;36180;57.678;11.910;2022-09-12T07:00:11;5.97;;;5.18;;
49962;SDS011;36180;57.678;11.910;2022-09-12T07:02:39;8.50;;;6.07;;
49962;SDS011;36180;57.678;11.910;2022-09-12T07:05:06;8.60;;;5.97;;
49962;SDS011;36180;57.678;11.910;2022-09-12T07:07:34;6.28;;;5.63;;
49962;SDS011;36180;57.678;11.910;2022-09-12T07:10:02;10.73;;;5.63;;
49962;SDS011;36180;57.678;11.910;2022-09-12T07:12:30;7.82;;;5.55;;
49962;SDS011;36180;57.678;11.910;2022-09-12T07:14:57;9.77;;;5.60;;
49962;SDS011;36180;57.678;11.910;2022-09-12T07:17:26;5.95;;;5.35;;
49962;SDS011;36180;57.678;11.910;2022-09-12T07:19:53;9.15;;;5.82;;
49962;SDS011;36180;57.678;11.910;2022-09-12T07:22:20;6.75;;;5.38;;
49962;SDS011;36180;57.678;11.910;2022-09-12T07:24:47;8.48;;;5.00;;
49962;SDS011;36180;57.678;11.910;2022-09-12T07:27:14;7.63;;;5.72;;
49962;SDS011;36180;57.678;11.910;2022-09-12T07:29:41;9.73;;;5.28;;
49962;SDS011;36180;57.678;11.910;2022-09-12T07:32:10;7.97;;;5.53;;
49962;SDS011;36180;57.678;11.910;2022-09-12T07:34:39;7.68;;;5.32;;
49962;SDS011;36180;57.678;11.910;2022-09-12T07:37:07;8.18;;;5.40;;
49962;SDS011;36180;57.678;11.910;2022-09-12T07:39:33;7.03;;;5.00;;
49962;SDS011;36180;57.678;11.910;2022-09-12T07:42:01;9.02;;;5.20;;
49962;SDS011;36180;57.678;11.910;2022-09-12T07:44:29;9.48;;;5.35;;
49962;SDS011;36180;57.678;11.910;2022-09-12T07:46:56;6.15;;;4.90;;
49962;SDS011;36180;57.678;11.910;2022-09-12T07:49:22;6.93;;;4.70;;
49962;SDS011;36180;57.678;11.910;2022-09-12T07:51:51;5.25;;;4.75;;
49962;SDS011;36180;57.678;11.910;2022-09-12T07:54:18;6.55;;;5.00;;
49962;SDS011;36180;57.678;11.910;2022-09-12T07:56:45;7.10;;;4.72;;
49962;SDS011;36180;57.678;11.910;2022-09-12T07:59:14;7.18;;;4.78;;
49962;SDS011;36180;57.678;11.910;2022-09-12T08:01:41;5.47;;;4.72;;
49962;SDS011;36180;57.678;11.910;2022-09-12T08:04:08;6.82;;;4.85;;
49962;SDS011;36180;57.678;11.910;2022-09-12T08:06:36;8.75;;;4.68;;
49962;SDS011;36180;57.678;11.910;2022-09-12T08:09:04;6.57;;;4.75;;
49962;SDS011;36180;57.678;11.910;2022-09-12T08:11:32;8.90;;;4.90;;
49962;SDS011;36180;57.678;11.910;2022-09-12T08:13:59;7.32;;;4.05;;
49962;SDS011;36180;57.678;11.910;2022-09-12T08:16:27;5.65;;;4.45;;
49962;SDS011;36180;57.678;11.910;2022-09-12T08:18:55;5.05;;;3.97;;
49962;SDS011;36180;57.678;11.910;2022-09-12T08:21:23;5.53;;;4.10;;
49962;SDS011;36180;57.678;11.910;2022-09-12T08:23:51;5.20;;;4.10;;
49962;SDS011;36180;57.678;11.910;2022-09-12T08:26:21;10.15;;;3.97;;
49962;SDS011;36180;57.678;11.910;2022-09-12T08:28:49;4.43;;;3.90;;
49962;SDS011;36180;57.678;11.910;2022-09-12T08:31:18;4.25;;;3.30;;
49962;SDS011;36180;57.678;11.910;2022-09-12T08:33:46;4.47;;;3.60;;
49962;SDS011;36180;57.678;11.910;2022-09-12T08:36:13;4.25;;;3.30;;
49962;SDS011;36180;57.678;11.910;2022-09-12T08:38:42;3.72;;;3.28;;
49962;SDS011;36180;57.678;11.910;2022-09-12T08:41:12;6.20;;;3.05;;
49962;SDS011;36180;57.678;11.910;2022-09-12T08:43:51;3.58;;;2.75;;
49962;SDS011;36180;57.678;11.910;2022-09-12T08:46:26;4.50;;;3.22;;
49962;SDS011;36180;57.678;11.910;2022-09-12T08:48:57;3.70;;;2.90;;
49962;SDS011;36180;57.678;11.910;2022-09-12T08:51:26;3.63;;;3.05;;
49962;SDS011;36180;57.678;11.910;2022-09-12T08:53:54;5.70;;;2.60;;
49962;SDS011;36180;57.678;11.910;2022-09-12T08:56:22;3.53;;;2.40;;
49962;SDS011;36180;57.678;11.910;2022-09-12T08:58:52;2.63;;;2.30;;
49962;SDS011;36180;57.678;11.910;2022-09-12T09:01:22;11.18;;;2.47;;
49962;SDS011;36180;57.678;11.910;2022-09-12T09:03:55;3.47;;;2.40;;
49962;SDS011;36180;57.678;11.910;2022-09-12T09:07:02;2.17;;;1.85;;
49962;SDS011;36180;57.678;11.910;2022-09-12T09:09:39;3.17;;;2.20;;
49962;SDS011;36180;57.678;11.910;2022-09-12T09:12:13;3.47;;;1.95;;
49962;SDS011;36180;57.678;11.910;2022-09-12T09:14:48;2.77;;;1.90;;
49962;SDS011;36180;57.678;11.910;2022-09-12T09:17:23;4.22;;;2.63;;
49962;SDS011;36180;57.678;11.910;2022-09-12T09:19:55;2.83;;;2.22;;
49962;SDS011;36180;57.678;11.910;2022-09-12T09:22:30;2.03;;;1.85;;
49962;SDS011;36180;57.678;11.910;2022-09-12T09:25:03;3.53;;;2.30;;
49962;SDS011;36180;57.678;11.910;2022-09-12T09:27:34;5.10;;;2.60;;
49962;SDS011;36180;57.678;11.910;2022-09-12T09:30:07;3.85;;;1.90;;
49962;SDS011;36180;57.678;11.910;2022-09-12T09:32:39;2.90;;;2.00;;
49962;SDS011;36180;57.678;11.910;2022-09-12T09:35:10;2.42;;;2.20;;
49962;SDS011;36180;57.678;11.910;2022-09-12T09:37:41;3.17;;;1.80;;
49962;SDS011;36180;57.678;11.910;2022-09-12T09:40:13;3.15;;;1.70;;
49962;SDS011;36180;57.678;11.910;2022-09-12T09:42:48;3.42;;;2.50;;
49962;SDS011;36180;57.678;11.910;2022-09-12T09:45:21;4.82;;;2.78;;
49962;SDS011;36180;57.678;11.910;2022-09-12T09:47:52;5.28;;;2.80;;
49962;SDS011;36180;57.678;11.910;2022-09-12T09:50:21;4.53;;;2.33;;
49962;SDS011;36180;57.678;11.910;2022-09-12T09:52:48;3.83;;;2.83;;
49962;SDS011;36180;57.678;11.910;2022-09-12T09:55:17;4.90;;;2.90;;
49962;SDS011;36180;57.678;11.910;2022-09-12T09:57:47;4.03;;;3.35;;
49962;SDS011;36180;57.678;11.910;2022-09-12T10:00:25;3.55;;;3.17;;
49962;SDS011;36180;57.678;11.910;2022-09-12T10:05:58;3.53;;;2.50;;
49962;SDS011;36180;57.678;11.910;2022-09-12T10:08:27;4.38;;;3.08;;
49962;SDS011;36180;57.678;11.910;2022-09-12T10:10:56;6.88;;;3.65;;
49962;SDS011;36180;57.678;11.910;2022-09-12T10:13:36;6.75;;;2.90;;
49962;SDS011;36180;57.678;11.910;2022-09-12T10:16:15;3.42;;;2.67;;
49962;SDS011;36180;57.678;11.910;2022-09-12T10:18:44;3.60;;;2.90;;
49962;SDS011;36180;57.678;11.910;2022-09-12T10:21:16;3.05;;;2.72;;
49962;SDS011;36180;57.678;11.910;2022-09-12T10:23:50;5.35;;;2.83;;
49962;SDS011;36180;57.678;11.910;2022-09-12T10:26:18;6.32;;;3.55;;
49962;SDS011;36180;57.678;11.910;2022-09-12T10:28:46;4.45;;;3.20;;
49962;SDS011;36180;57.678;11.910;2022-09-12T10:31:23;5.30;;;2.70;;
49962;SDS011;36180;57.678;11.910;2022-09-12T10:33:54;4.05;;;2.75;;
49962;SDS011;36180;57.678;11.910;2022-09-12T10:36:21;6.93;;;2.72;;
49962;SDS011;36180;57.678;11.910;2022-09-12T10:38:49;4.32;;;2.70;;
49962;SDS011;36180;57.678;11.910;2022-09-12T10:41:18;8.10;;;2.78;;
49962;SDS011;36180;57.678;11.910;2022-09-12T10:43:46;3.05;;;2.50;;
49962;SDS011;36180;57.678;11.910;2022-09-12T10:46:20;3.95;;;2.50;;
49962;SDS011;36180;57.678;11.910;2022-09-12T10:48:49;4.95;;;2.80;;
49962;SDS011;36180;57.678;11.910;2022-09-12T10:51:25;4.55;;;2.72;;
49962;SDS011;36180;57.678;11.910;2022-09-12T10:53:53;4.93;;;2.70;;
49962;SDS011;36180;57.678;11.910;2022-09-12T10:56:21;5.55;;;3.10;;
49962;SDS011;36180;57.678;11.910;2022-09-12T10:58:58;4.65;;;2.50;;
49962;SDS011;36180;57.678;11.910;2022-09-12T11:01:39;2.40;;;2.20;;
49962;SDS011;36180;57.678;11.910;2022-09-12T11:09:41;4.25;;;2.78;;
49962;SDS011;36180;57.678;11.910;2022-09-12T11:12:14;3.85;;;3.35;;
49962;SDS011;36180;57.678;11.910;2022-09-12T11:17:24;3.58;;;2.90;;
49962;SDS011;36180;57.678;11.910;2022-09-12T11:20:02;9.30;;;2.83;;
49962;SDS011;36180;57.678;11.910;2022-09-12T11:22:42;3.80;;;2.50;;
49962;SDS011;36180;57.678;11.910;2022-09-12T11:25:32;3.50;;;2.38;;
49962;SDS011;36180;57.678;11.910;2022-09-12T11:30:52;4.57;;;2.80;;
49962;SDS011;36180;57.678;11.910;2022-09-12T11:33:31;4.68;;;2.80;;
49962;SDS011;36180;57.678;11.910;2022-09-12T11:36:06;2.90;;;2.60;;
49962;SDS011;36180;57.678;11.910;2022-09-12T11:38:45;4.05;;;2.65;;
49962;SDS011;36180;57.678;11.910;2022-09-12T11:41:17;3.78;;;2.53;;
49962;SDS011;36180;57.678;11.910;2022-09-12T11:43:48;4.53;;;2.95;;
49962;SDS011;36180;57.678;11.910;2022-09-12T11:46:18;3.20;;;2.50;;
49962;SDS011;36180;57.678;11.910;2022-09-12T11:48:52;3.78;;;2.97;;
49962;SDS011;36180;57.678;11.910;2022-09-12T11:51:23;4.57;;;2.63;;
49962;SDS011;36180;57.678;11.910;2022-09-12T11:53:58;2.88;;;2.45;;
49962;SDS011;36180;57.678;11.910;2022-09-12T11:56:28;2.90;;;2.40;;
49962;SDS011;36180;57.678;11.910;2022-09-12T11:58:57;7.75;;;2.90;;
49962;SDS011;36180;57.678;11.910;2022-09-12T12:01:27;5.78;;;2.50;;
49962;SDS011;36180;57.678;11.910;2022-09-12T12:03:59;4.05;;;1.98;;
49962;SDS011;36180;57.678;11.910;2022-09-12T12:06:29;3.17;;;2.20;;
49962;SDS011;36180;57.678;11.910;2022-09-12T12:08:58;4.70;;;2.25;;
49962;SDS011;36180;57.678;11.910;2022-09-12T12:11:26;3.85;;;2.40;;
49962;SDS011;36180;57.678;11.910;2022-09-12T12:13:57;8.68;;;2.45;;
49962;SDS011;36180;57.678;11.910;2022-09-12T12:16:26;4.53;;;2.50;;
49962;SDS011;36180;57.678;11.910;2022-09-12T12:18:54;3.63;;;2.25;;
49962;SDS011;36180;57.678;11.910;2022-09-12T12:21:35;4.00;;;2.38;;
49962;SDS011;36180;57.678;11.910;2022-09-12T12:24:12;4.18;;;1.92;;
49962;SDS011;36180;57.678;11.910;2022-09-12T12:26:44;4.20;;;2.33;;
49962;SDS011;36180;57.678;11.910;2022-09-12T12:29:40;2.95;;;2.00;;
49962;SDS011;36180;57.678;11.910;2022-09-12T12:32:18;1.77;;;1.63;;
49962;SDS011;36180;57.678;11.910;2022-09-12T12:34:49;2.83;;;2.30;;
49962;SDS011;36180;57.678;11.910;2022-09-12T12:40:20;3.85;;;1.98;;
49962;SDS011;36180;57.678;11.910;2022-09-12T12:43:00;3.17;;;2.50;;
49962;SDS011;36180;57.678;11.910;2022-09-12T12:45:48;5.80;;;2.42;;
49962;SDS011;36180;57.678;11.910;2022-09-12T12:48:27;6.57;;;2.70;;
49962;SDS011;36180;57.678;11.910;2022-09-12T12:53:43;3.40;;;2.72;;
49962;SDS011;36180;57.678;11.910;2022-09-12T12:56:24;5.50;;;2.53;;
49962;SDS011;36180;57.678;11.910;2022-09-12T12:58:56;6.75;;;2.88;;
49962;SDS011;36180;57.678;11.910;2022-09-12T13:01:24;5.70;;;2.60;;
49962;SDS011;36180;57.678;11.910;2022-09-12T13:03:53;4.25;;;2.47;;
49962;SDS011;36180;57.678;11.910;2022-09-12T13:06:24;6.07;;;2.75;;
49962;SDS011;36180;57.678;11.910;2022-09-12T13:08:58;4.65;;;2.70;;
49962;SDS011;36180;57.678;11.910;2022-09-12T13:11:28;4.03;;;2.90;;
49962;SDS011;36180;57.678;11.910;2022-09-12T13:13:58;2.30;;;2.20;;
49962;SDS011;36180;57.678;11.910;2022-09-12T13:16:33;4.20;;;2.60;;
49962;SDS011;36180;57.678;11.910;2022-09-12T13:19:02;4.30;;;3.08;;
49962;SDS011;36180;57.678;11.910;2022-09-12T13:21:31;3.25;;;2.63;;
49962;SDS011;36180;57.678;11.910;2022-09-12T13:23:59;3.65;;;3.22;;
49962;SDS011;36180;57.678;11.910;2022-09-12T13:26:27;4.53;;;3.00;;
49962;SDS011;36180;57.678;11.910;2022-09-12T13:29:13;7.30;;;3.17;;
49962;SDS011;36180;57.678;11.910;2022-09-12T13:31:42;4.95;;;3.00;;
49962;SDS011;36180;57.678;11.910;2022-09-12T13:34:09;6.72;;;3.10;;
49962;SDS011;36180;57.678;11.910;2022-09-12T13:36:41;3.28;;;2.63;;
49962;SDS011;36180;57.678;11.910;2022-09-12T13:39:16;4.53;;;2.97;;
49962;SDS011;36180;57.678;11.910;2022-09-12T13:41:59;4.35;;;2.65;;
49962;SDS011;36180;57.678;11.910;2022-09-12T13:44:47;5.43;;;3.10;;
49962;SDS011;36180;57.678;11.910;2022-09-12T13:47:17;2.97;;;2.70;;
49962;SDS011;36180;57.678;11.910;2022-09-12T13:49:48;6.47;;;3.00;;
49962;SDS011;36180;57.678;11.910;2022-09-12T13:52:16;7.50;;;3.08;;
49962;SDS011;36180;57.678;11.910;2022-09-12T13:54:47;4.57;;;3.20;;
49962;SDS011;36180;57.678;11.910;2022-09-12T13:57:29;5.20;;;2.97;;
49962;SDS011;36180;57.678;11.910;2022-09-12T13:59:58;4.25;;;3.05;;
49962;SDS011;36180;57.678;11.910;2022-09-12T14:02:26;5.93;;;3.35;;
49962;SDS011;36180;57.678;11.910;2022-09-12T14:04:55;5.95;;;3.10;;
49962;SDS011;36180;57.678;11.910;2022-09-12T14:10:22;6.25;;;3.45;;
49962;SDS011;36180;57.678;11.910;2022-09-12T14:12:53;6.53;;;3.40;;
49962;SDS011;36180;57.678;11.910;2022-09-12T14:15:22;8.20;;;3.28;;
49962;SDS011;36180;57.678;11.910;2022-09-12T14:17:52;4.38;;;3.15;;
49962;SDS011;36180;57.678;11.910;2022-09-12T14:20:20;6.78;;;3.30;;
49962;SDS011;36180;57.678;11.910;2022-09-12T14:22:49;6.68;;;3.88;;
49962;SDS011;36180;57.678;11.910;2022-09-12T14:25:17;4.57;;;3.10;;
49962;SDS011;36180;57.678;11.910;2022-09-12T14:27:47;4.68;;;2.70;;
49962;SDS011;36180;57.678;11.910;2022-09-12T14:30:21;6.40;;;3.20;;
49962;SDS011;36180;57.678;11.910;2022-09-12T14:33:14;5.30;;;3.45;;
49962;SDS011;36180;57.678;11.910;2022-09-12T14:35:44;8.18;;;3.38;;
49962;SDS011;36180;57.678;11.910;2022-09-12T14:38:13;5.63;;;3.15;;
49962;SDS011;36180;57.678;11.910;2022-09-12T14:40:46;4.70;;;3.30;;
49962;SDS011;36180;57.678;11.910;2022-09-12T14:43:19;7.50;;;3.35;;
49962;SDS011;36180;57.678;11.910;2022-09-12T14:45:53;5.55;;;3.58;;
49962;SDS011;36180;57.678;11.910;2022-09-12T14:48:23;6.43;;;3.60;;
49962;SDS011;36180;57.678;11.910;2022-09-12T14:50:51;5.57;;;3.47;;
49962;SDS011;36180;57.678;11.910;2022-09-12T14:53:20;8.10;;;3.20;;
49962;SDS011;36180;57.678;11.910;2022-09-12T14:55:56;6.13;;;3.28;;
49962;SDS011;36180;57.678;11.910;2022-09-12T14:58:30;6.40;;;2.78;;
49962;SDS011;36180;57.678;11.910;2022-09-12T15:00:58;9.48;;;3.67;;
49962;SDS011;36180;57.678;11.910;2022-09-12T15:03:27;5.15;;;2.85;;
49962;SDS011;36180;57.678;11.910;2022-09-12T15:05:56;3.83;;;2.78;;
49962;SDS011;36180;57.678;11.910;2022-09-12T15:08:23;6.18;;;3.13;;
49962;SDS011;36180;57.678;11.910;2022-09-12T15:10:51;4.80;;;2.90;;
49962;SDS011;36180;57.678;11.910;2022-09-12T15:13:19;7.25;;;2.97;;
49962;SDS011;36180;57.678;11.910;2022-09-12T15:15:50;7.13;;;3.30;;
49962;SDS011;36180;57.678;11.910;2022-09-12T15:18:17;6.60;;;3.10;;